createdAt,value
2018-08-13T00:00:27.615Z,3.87
2018-08-13T00:03:03.910Z,3.60
2018-08-13T00:05:39.855Z,3.40
2018-08-13T00:08:16.713Z,5.80
2018-08-13T00:10:52.724Z,3.57
2018-08-13T00:13:29.678Z,2.70
2018-08-13T00:16:04.860Z,2.53
2018-08-13T00:18:41.679Z,2.67
2018-08-13T00:21:17.926Z,3.20
2018-08-13T00:23:53.170Z,4.40
2018-08-13T00:26:29.083Z,3.47
2018-08-13T00:29:04.619Z,3.50
2018-08-13T00:31:39.317Z,5.07
2018-08-13T00:34:15.018Z,3.70
2018-08-13T00:36:49.911Z,2.43
2018-08-13T00:39:25.127Z,3.17
2018-08-13T00:42:02.062Z,4.10
2018-08-13T00:44:38.471Z,3.97
2018-08-13T00:47:13.539Z,3.30
2018-08-13T00:49:49.265Z,3.57
2018-08-13T00:52:24.794Z,3.03
2018-08-13T00:55:00.998Z,3.60
2018-08-13T00:57:36.734Z,3.93
2018-08-13T01:00:17.514Z,4.23
2018-08-13T01:02:53.866Z,3.90
2018-08-13T01:05:29.209Z,4.33
2018-08-13T01:08:04.251Z,2.97
2018-08-13T01:10:40.428Z,4.20
2018-08-13T01:13:15.571Z,4.53
2018-08-13T01:15:51.422Z,3.30
2018-08-13T01:18:27.446Z,6.37
2018-08-13T01:21:02.874Z,3.10
2018-08-13T01:23:38.474Z,3.67
2018-08-13T01:26:13.034Z,4.77
2018-08-13T01:28:49.545Z,3.97
2018-08-13T01:31:24.462Z,2.80
2018-08-13T01:33:59.182Z,3.50
2018-08-13T01:36:34.114Z,2.67
2018-08-13T01:39:10.766Z,3.60
2018-08-13T01:41:46.886Z,2.87
2018-08-13T01:44:21.855Z,3.27
2018-08-13T01:46:58.803Z,4.30
2018-08-13T01:49:34.746Z,2.80
2018-08-13T01:52:10.235Z,4.93
2018-08-13T01:54:46.315Z,3.87
2018-08-13T01:57:23.118Z,3.73
2018-08-13T01:59:58.407Z,3.10
2018-08-13T02:02:33.304Z,2.77
2018-08-13T02:05:10.057Z,3.33
2018-08-13T02:07:45.173Z,2.70
2018-08-13T02:10:20.467Z,3.17
2018-08-13T02:12:56.919Z,3.43
2018-08-13T02:15:31.995Z,3.90
2018-08-13T02:18:07.599Z,6.50
2018-08-13T02:20:43.579Z,2.70
2018-08-13T02:23:18.433Z,3.03
2018-08-13T02:25:54.866Z,2.70
2018-08-13T02:28:29.829Z,4.73
2018-08-13T02:31:05.451Z,3.53
2018-08-13T02:33:40.399Z,3.57
2018-08-13T02:36:15.786Z,3.43
2018-08-13T02:38:52.379Z,3.20
2018-08-13T02:41:29.751Z,5.23
2018-08-13T02:44:05.833Z,4.10
2018-08-13T02:46:41.807Z,5.10
2018-08-13T02:49:17.292Z,2.70
2018-08-13T02:51:52.996Z,3.13
2018-08-13T02:54:28.235Z,4.70
2018-08-13T02:57:05.360Z,3.13
2018-08-13T02:59:41.690Z,2.87
2018-08-13T03:02:17.972Z,3.73
2018-08-13T03:04:53.887Z,4.00
2018-08-13T03:07:29.943Z,4.03
2018-08-13T03:10:07.786Z,3.23
2018-08-13T03:12:44.106Z,3.73
2018-08-13T03:15:20.059Z,3.57
2018-08-13T03:17:55.130Z,2.87
2018-08-13T03:20:31.630Z,4.10
2018-08-13T03:23:07.955Z,3.63
2018-08-13T03:25:43.890Z,3.00
2018-08-13T03:28:18.998Z,3.97
2018-08-13T03:30:54.762Z,2.37
2018-08-13T03:33:30.551Z,3.57
2018-08-13T03:36:06.053Z,3.60
2018-08-13T03:38:40.982Z,4.23
2018-08-13T03:41:16.575Z,4.37
2018-08-13T03:43:51.889Z,5.53
2018-08-13T03:46:28.716Z,2.93
2018-08-13T03:49:04.504Z,5.23
2018-08-13T03:51:40.178Z,5.07
2018-08-13T03:54:16.163Z,3.77
2018-08-13T03:56:51.285Z,5.90
2018-08-13T03:59:26.838Z,5.13
2018-08-13T04:02:02.530Z,4.80
2018-08-13T04:04:37.891Z,3.50
2018-08-13T04:07:13.238Z,3.00
2018-08-13T04:09:47.922Z,5.53
2018-08-13T04:12:23.808Z,4.40
2018-08-13T04:14:59.930Z,3.63
2018-08-13T04:17:35.081Z,4.67
2018-08-13T04:20:11.714Z,4.93
2018-08-13T04:22:48.478Z,3.83
2018-08-13T04:25:25.526Z,4.40
2018-08-13T04:28:01.718Z,4.87
2018-08-13T04:30:36.415Z,4.60
2018-08-13T04:33:11.093Z,5.80
2018-08-13T04:35:46.946Z,6.37
2018-08-13T04:38:22.925Z,6.90
2018-08-13T04:40:59.536Z,9.07
2018-08-13T04:43:34.955Z,8.10
2018-08-13T04:46:10.157Z,6.57
2018-08-13T04:48:44.753Z,5.53
2018-08-13T04:51:21.595Z,8.73
2018-08-13T04:53:56.970Z,14.70
2018-08-13T04:56:32.863Z,7.20
2018-08-13T04:59:08.186Z,9.63
2018-08-13T05:01:43.882Z,10.20
2018-08-13T05:04:19.370Z,12.00
2018-08-13T05:06:55.368Z,9.83
2018-08-13T05:09:30.798Z,11.77
2018-08-13T05:12:05.760Z,8.67
2018-08-13T05:14:41.696Z,9.50
2018-08-13T05:17:17.607Z,5.10
2018-08-13T05:19:53.467Z,7.23
2018-08-13T05:22:28.999Z,7.77
2018-08-13T05:25:06.390Z,6.30
2018-08-13T05:27:42.235Z,9.00
2018-08-13T05:30:18.681Z,9.10
2018-08-13T05:32:54.483Z,7.67
2018-08-13T05:35:30.623Z,9.13
2018-08-13T05:38:07.182Z,8.03
2018-08-13T05:40:46.781Z,5.57
2018-08-13T05:43:22.874Z,6.10
2018-08-13T05:45:57.587Z,9.17
2018-08-13T05:48:33.998Z,5.40
2018-08-13T05:51:10.102Z,7.13
2018-08-13T05:53:45.795Z,7.67
2018-08-13T05:56:21.947Z,5.27
2018-08-13T05:58:58.970Z,7.53
2018-08-13T06:01:34.636Z,6.17
2018-08-13T06:04:10.193Z,7.00
2018-08-13T06:06:45.751Z,5.63
2018-08-13T06:09:22.006Z,7.60
2018-08-13T06:11:57.206Z,7.23
2018-08-13T06:14:33.243Z,7.07
2018-08-13T06:17:08.260Z,7.43
2018-08-13T06:19:44.347Z,8.57
2018-08-13T06:22:21.065Z,8.67
2018-08-13T06:24:56.863Z,7.87
2018-08-13T06:27:31.146Z,10.80
2018-08-13T06:30:09.024Z,9.87
2018-08-13T06:32:46.047Z,9.43
2018-08-13T06:35:22.062Z,7.97
2018-08-13T06:37:57.158Z,8.23
2018-08-13T06:40:32.294Z,6.57
2018-08-13T06:43:07.141Z,7.37
2018-08-13T06:45:42.515Z,9.63
2018-08-13T06:48:17.390Z,10.17
2018-08-13T06:50:54.074Z,7.80
2018-08-13T06:53:29.443Z,4.83
2018-08-13T06:56:04.615Z,7.90
2018-08-13T06:58:39.226Z,8.43
2018-08-13T07:01:14.027Z,7.20
2018-08-13T07:03:49.194Z,7.33
2018-08-13T07:06:23.427Z,4.00
2018-08-13T07:08:59.409Z,5.37
2018-08-13T07:11:36.636Z,7.73
2018-08-13T07:14:12.691Z,5.67
2018-08-13T07:16:47.659Z,8.93
2018-08-13T07:19:23.329Z,7.63
2018-08-13T07:21:59.923Z,6.40
2018-08-13T07:24:36.090Z,6.90
2018-08-13T07:27:11.930Z,7.57
2018-08-13T07:29:47.805Z,6.57
2018-08-13T07:32:22.666Z,7.07
2018-08-13T07:34:59.103Z,8.27
2018-08-13T07:37:34.650Z,4.80
2018-08-13T07:40:13.484Z,7.20
2018-08-13T07:42:49.102Z,6.97
2018-08-13T07:45:24.031Z,8.97
2018-08-13T07:47:59.071Z,6.33
2018-08-13T07:50:33.987Z,7.13
2018-08-13T07:53:09.591Z,8.40
2018-08-13T07:55:45.471Z,5.37
2018-08-13T07:58:20.822Z,9.13
2018-08-13T08:00:57.033Z,6.87
2018-08-13T08:03:32.454Z,6.80
2018-08-13T08:06:07.781Z,7.37
2018-08-13T08:08:42.991Z,3.93
2018-08-13T08:11:18.503Z,6.57
2018-08-13T08:13:53.966Z,6.60
2018-08-13T08:16:30.722Z,7.70
2018-08-13T08:19:06.826Z,7.90
2018-08-13T08:21:42.991Z,5.33
2018-08-13T08:24:18.734Z,6.73
2018-08-13T08:26:53.214Z,5.03
2018-08-13T08:29:28.934Z,6.03
2018-08-13T08:32:06.114Z,4.57
2018-08-13T08:34:41.803Z,7.03
2018-08-13T08:37:16.506Z,6.13
2018-08-13T08:39:52.498Z,3.80
2018-08-13T08:42:29.608Z,4.77
2018-08-13T08:45:07.778Z,6.87
2018-08-13T08:47:44.818Z,4.47
2018-08-13T08:50:20.054Z,4.77
2018-08-13T08:52:54.865Z,5.63
2018-08-13T08:55:30.054Z,5.77
2018-08-13T08:58:05.226Z,4.60
2018-08-13T09:00:40.795Z,5.27
2018-08-13T09:03:15.989Z,6.80
2018-08-13T09:05:52.387Z,5.03
2018-08-13T09:08:28.783Z,4.00
2018-08-13T09:11:04.386Z,5.33
2018-08-13T09:13:39.931Z,5.33
2018-08-13T09:16:15.561Z,4.07
2018-08-13T09:19:02.642Z,4.30
2018-08-13T09:21:38.132Z,4.13
2018-08-13T09:24:24.034Z,3.93
2018-08-13T09:27:11.010Z,9.90
2018-08-13T09:29:58.029Z,4.77
2018-08-13T09:32:44.836Z,5.73
2018-08-13T09:35:24.889Z,3.53
2018-08-13T09:38:00.119Z,3.30
2018-08-13T09:40:35.545Z,4.73
2018-08-13T09:43:11.058Z,6.00
2018-08-13T09:45:46.597Z,4.00
2018-08-13T09:48:21.766Z,5.17
2018-08-13T09:50:56.841Z,6.27
2018-08-13T09:53:32.291Z,3.87
2018-08-13T09:56:07.662Z,4.03
2018-08-13T09:58:43.466Z,5.83
2018-08-13T10:01:19.798Z,5.17
2018-08-13T10:03:55.746Z,7.67
2018-08-13T10:06:31.334Z,5.07
2018-08-13T10:09:08.030Z,5.90
2018-08-13T10:11:42.999Z,6.93
2018-08-13T10:14:19.974Z,6.43
2018-08-13T10:16:55.715Z,3.80
2018-08-13T10:19:32.710Z,5.83
2018-08-13T10:22:08.026Z,8.53
2018-08-13T10:24:43.624Z,5.00
2018-08-13T10:27:19.058Z,5.60
2018-08-13T10:29:54.180Z,6.30
2018-08-13T10:32:30.191Z,7.47
2018-08-13T10:35:05.954Z,4.50
2018-08-13T10:37:41.993Z,4.77
2018-08-13T10:40:18.958Z,6.03
2018-08-13T10:42:54.015Z,4.40
2018-08-13T10:45:29.765Z,6.07
2018-08-13T10:48:06.582Z,7.67
2018-08-13T10:50:41.994Z,6.67
2018-08-13T10:53:17.653Z,4.67
2018-08-13T10:55:52.970Z,6.57
2018-08-13T10:58:28.166Z,4.63
2018-08-13T11:01:03.986Z,7.17
2018-08-13T11:03:40.435Z,5.13
2018-08-13T11:06:15.794Z,6.20
2018-08-13T11:08:50.818Z,6.23
2018-08-13T11:11:25.890Z,5.47
2018-08-13T11:14:00.867Z,6.00
2018-08-13T11:16:35.651Z,6.83
2018-08-13T11:19:11.474Z,6.03
2018-08-13T11:21:47.039Z,4.60
2018-08-13T11:24:23.662Z,6.07
2018-08-13T11:26:59.478Z,5.37
2018-08-13T11:29:34.358Z,4.00
2018-08-13T11:32:09.062Z,6.50
2018-08-13T11:34:44.802Z,6.23
2018-08-13T11:37:20.923Z,8.53
2018-08-13T11:39:57.015Z,4.63
2018-08-13T11:42:33.155Z,6.37
2018-08-13T11:45:09.250Z,7.20
2018-08-13T11:47:44.903Z,5.83
2018-08-13T11:50:21.082Z,7.50
2018-08-13T11:52:55.986Z,5.77
2018-08-13T11:55:31.748Z,5.23
2018-08-13T11:58:06.687Z,6.10
2018-08-13T12:00:41.834Z,5.47
2018-08-13T12:03:17.159Z,5.77
2018-08-13T12:05:52.983Z,4.97
2018-08-13T12:08:29.046Z,3.93
2018-08-13T12:11:04.827Z,4.20
2018-08-13T12:13:40.058Z,4.03
2018-08-13T12:16:15.986Z,5.97
2018-08-13T12:18:51.774Z,5.07
2018-08-13T12:21:27.032Z,4.73
2018-08-13T12:24:03.575Z,4.30
2018-08-13T12:26:39.747Z,5.80
2018-08-13T12:29:14.843Z,6.20
2018-08-13T12:31:51.548Z,6.90
2018-08-13T12:34:29.011Z,4.50
2018-08-13T12:37:09.675Z,4.70
2018-08-13T12:39:45.290Z,4.33
2018-08-13T12:42:21.035Z,4.30
2018-08-13T12:44:57.298Z,4.50
2018-08-13T12:47:32.738Z,3.93
2018-08-13T12:50:10.518Z,5.47
2018-08-13T12:52:48.035Z,4.20
2018-08-13T12:55:22.947Z,6.33
2018-08-13T12:57:58.159Z,8.13
2018-08-13T13:00:33.642Z,5.87
2018-08-13T13:03:09.405Z,6.70
2018-08-13T13:05:44.585Z,8.53
2018-08-13T13:08:20.356Z,5.40
2018-08-13T13:10:57.677Z,3.93
2018-08-13T13:13:32.863Z,4.83
2018-08-13T13:16:07.650Z,5.83
2018-08-13T13:18:42.555Z,5.90
2018-08-13T13:21:18.009Z,5.40
2018-08-13T13:23:53.386Z,4.73
2018-08-13T13:26:30.384Z,5.57
2018-08-13T13:29:06.455Z,3.27
2018-08-13T13:31:43.439Z,4.97
2018-08-13T13:34:19.136Z,3.67
2018-08-13T13:36:53.889Z,5.47
2018-08-13T13:39:29.623Z,3.67
2018-08-13T13:42:04.996Z,5.00
2018-08-13T13:44:40.538Z,4.63
2018-08-13T13:47:17.063Z,5.77
2018-08-13T13:49:52.802Z,3.30
2018-08-13T13:52:28.767Z,4.30
2018-08-13T13:55:05.225Z,6.80
2018-08-13T13:57:40.743Z,4.57
2018-08-13T14:00:17.680Z,5.77
2018-08-13T14:02:53.559Z,12.87
2018-08-13T14:05:28.757Z,7.87
2018-08-13T14:08:04.066Z,6.60
2018-08-13T14:10:39.670Z,6.13
2018-08-13T14:13:15.710Z,3.30
2018-08-13T14:15:51.380Z,5.20
2018-08-13T14:18:26.531Z,6.17
2018-08-13T14:21:02.593Z,3.37
2018-08-13T14:23:39.892Z,5.67
2018-08-13T14:26:15.730Z,5.67
2018-08-13T14:28:51.270Z,5.50
2018-08-13T14:31:27.018Z,7.27
2018-08-13T14:34:02.164Z,5.60
2018-08-13T14:36:37.973Z,7.87
2018-08-13T14:39:14.099Z,6.87
2018-08-13T14:41:49.699Z,8.23
2018-08-13T14:44:25.083Z,8.10
2018-08-13T14:47:00.683Z,6.73
2018-08-13T14:49:36.074Z,6.40
2018-08-13T14:52:13.083Z,8.50
2018-08-13T14:54:48.669Z,7.60
2018-08-13T14:57:23.911Z,10.13
2018-08-13T15:00:00.522Z,7.27
2018-08-13T15:02:37.590Z,6.27
2018-08-13T15:05:12.774Z,5.87
2018-08-13T15:07:48.931Z,7.93
2018-08-13T15:10:25.044Z,6.30
2018-08-13T15:13:01.837Z,6.93
2018-08-13T15:15:38.575Z,6.63
2018-08-13T15:18:13.733Z,8.13
2018-08-13T15:20:49.434Z,5.83
2018-08-13T15:23:24.701Z,7.67
2018-08-13T15:25:59.922Z,8.03
2018-08-13T15:28:34.749Z,7.13
2018-08-13T15:31:11.535Z,6.90
2018-08-13T15:33:47.262Z,8.17
2018-08-13T15:36:22.162Z,13.23
2018-08-13T15:38:57.819Z,9.67
2018-08-13T15:41:32.878Z,8.37
2018-08-13T15:44:08.067Z,10.57
2018-08-13T15:46:45.271Z,11.30
2018-08-13T15:49:21.447Z,6.83
2018-08-13T15:51:56.727Z,6.73
2018-08-13T15:54:32.030Z,3.93
2018-08-13T15:57:08.470Z,3.73
2018-08-13T15:59:43.758Z,3.70
2018-08-13T16:02:19.222Z,5.07
2018-08-13T16:04:54.543Z,4.30
2018-08-13T16:07:31.589Z,5.00
2018-08-13T16:10:11.182Z,6.63
2018-08-13T16:12:46.844Z,4.97
2018-08-13T16:15:22.332Z,4.33
2018-08-13T16:17:57.041Z,4.57
2018-08-13T16:20:33.331Z,3.43
2018-08-13T16:23:08.377Z,4.87
2018-08-13T16:25:42.822Z,6.87
2018-08-13T16:28:17.997Z,6.23
2018-08-13T16:30:53.819Z,6.03
2018-08-13T16:33:28.763Z,4.17
2018-08-13T16:36:05.425Z,7.63
2018-08-13T16:38:42.818Z,4.00
2018-08-13T16:41:17.759Z,4.27
2018-08-13T16:43:53.574Z,4.07
2018-08-13T16:46:31.606Z,7.63
2018-08-13T16:49:06.335Z,5.10
2018-08-13T16:51:41.446Z,5.57
2018-08-13T16:54:16.715Z,4.07
2018-08-13T16:56:51.494Z,4.93
2018-08-13T16:59:27.350Z,5.23
2018-08-13T17:02:02.830Z,6.67
2018-08-13T17:04:37.874Z,6.20
2018-08-13T17:07:13.990Z,4.70
2018-08-13T17:09:49.380Z,4.67
2018-08-13T17:12:24.126Z,5.67
2018-08-13T17:15:00.051Z,5.93
2018-08-13T17:17:35.786Z,5.10
2018-08-13T17:20:15.878Z,8.63
2018-08-13T17:22:51.811Z,5.17
2018-08-13T17:25:28.298Z,4.23
2018-08-13T17:28:04.866Z,5.37
2018-08-13T17:30:40.094Z,8.00
2018-08-13T17:33:16.672Z,4.67
2018-08-13T17:35:53.906Z,3.70
2018-08-13T17:38:29.572Z,3.70
2018-08-13T17:41:05.710Z,6.27
2018-08-13T17:43:40.948Z,5.00
2018-08-13T17:46:15.378Z,4.73
2018-08-13T17:48:50.848Z,5.13
2018-08-13T17:51:26.739Z,4.13
2018-08-13T17:54:03.271Z,5.80
2018-08-13T17:56:40.246Z,5.10
2018-08-13T17:59:16.443Z,7.23
2018-08-13T18:01:53.536Z,5.63
2018-08-13T18:04:29.540Z,5.03
2018-08-13T18:07:06.170Z,6.07
2018-08-13T18:09:41.621Z,11.37
2018-08-13T18:12:17.082Z,14.47
2018-08-13T18:14:52.938Z,13.83
2018-08-13T18:17:28.898Z,15.83
2018-08-13T18:20:04.397Z,10.73
2018-08-13T18:22:39.770Z,10.00
2018-08-13T18:25:15.779Z,9.63
2018-08-13T18:27:52.341Z,10.20
2018-08-13T18:30:28.934Z,7.90
2018-08-13T18:33:03.954Z,6.57
2018-08-13T18:35:39.254Z,7.47
2018-08-13T18:38:14.633Z,12.73
2018-08-13T18:40:50.259Z,8.90
2018-08-13T18:43:26.323Z,9.47
2018-08-13T18:46:01.810Z,8.90
2018-08-13T18:48:36.858Z,8.50
2018-08-13T18:51:13.738Z,7.87
2018-08-13T18:53:48.765Z,12.77
2018-08-13T18:56:25.384Z,10.30
2018-08-13T18:59:02.131Z,7.67
2018-08-13T19:01:39.095Z,9.13
2018-08-13T19:04:14.601Z,8.07
2018-08-13T19:06:50.503Z,8.23
2018-08-13T19:09:26.955Z,11.80
2018-08-13T19:12:02.650Z,8.30
2018-08-13T19:14:39.619Z,9.80
2018-08-13T19:17:15.807Z,10.37
2018-08-13T19:19:51.487Z,9.33
2018-08-13T19:22:27.642Z,9.07
2018-08-13T19:25:04.427Z,8.63
2018-08-13T19:27:39.934Z,9.10
2018-08-13T19:30:17.634Z,10.80
2018-08-13T19:32:53.074Z,7.87
2018-08-13T19:35:29.142Z,10.40
2018-08-13T19:38:05.336Z,9.80
2018-08-13T19:40:41.362Z,11.47
2018-08-13T19:43:16.966Z,10.60
2018-08-13T19:45:53.043Z,12.80
2018-08-13T19:48:28.234Z,10.73
2018-08-13T19:51:03.689Z,13.60
2018-08-13T19:53:40.308Z,9.63
2018-08-13T19:56:16.346Z,10.40
2018-08-13T19:58:52.534Z,11.03
2018-08-13T20:01:27.747Z,8.40
2018-08-13T20:04:03.684Z,18.30
2018-08-13T20:06:38.883Z,9.53
2018-08-13T20:09:15.371Z,10.47
2018-08-13T20:11:55.174Z,11.63
2018-08-13T20:14:32.950Z,13.20
2018-08-13T20:17:07.678Z,11.37
2018-08-13T20:19:43.150Z,9.03
2018-08-13T20:22:19.319Z,9.20
2018-08-13T20:24:55.258Z,9.47
2018-08-13T20:27:30.579Z,9.87
2018-08-13T20:30:07.174Z,8.73
2018-08-13T20:32:42.733Z,9.00
2018-08-13T20:35:18.639Z,13.07
2018-08-13T20:37:54.094Z,9.87
2018-08-13T20:40:28.982Z,10.60
2018-08-13T20:43:04.354Z,8.30
2018-08-13T20:45:40.570Z,8.87
2018-08-13T20:48:17.490Z,8.80
2018-08-13T20:50:53.286Z,10.50
2018-08-13T20:53:28.885Z,7.83
2018-08-13T20:56:03.758Z,8.87
2018-08-13T20:58:38.771Z,8.13
2018-08-13T21:01:13.981Z,8.93
2018-08-13T21:03:49.230Z,8.97
2018-08-13T21:06:24.297Z,10.37
2018-08-13T21:08:58.687Z,8.67
2018-08-13T21:11:35.028Z,10.20
2018-08-13T21:14:11.091Z,10.90
2018-08-13T21:16:46.776Z,9.40
2018-08-13T21:19:22.158Z,8.90
2018-08-13T21:21:57.650Z,12.87
2018-08-13T21:24:33.888Z,10.30
2018-08-13T21:27:09.425Z,11.70
2018-08-13T21:29:44.889Z,11.10
2018-08-13T21:32:20.525Z,11.17
2018-08-13T21:34:57.857Z,8.20
2018-08-13T21:37:34.491Z,11.67
2018-08-13T21:40:10.500Z,10.53
2018-08-13T21:42:47.625Z,9.70
2018-08-13T21:45:24.483Z,9.00
2018-08-13T21:48:00.407Z,10.03
2018-08-13T21:50:35.690Z,9.30
2018-08-13T21:53:11.003Z,9.50
2018-08-13T21:55:47.547Z,9.47
2018-08-13T21:58:23.203Z,7.90
2018-08-13T22:01:04.137Z,10.20
2018-08-13T22:03:39.189Z,7.07
2018-08-13T22:06:14.911Z,7.57
2018-08-13T22:08:51.390Z,7.10
2018-08-13T22:11:27.368Z,10.43
2018-08-13T22:14:01.994Z,7.33
2018-08-13T22:16:37.791Z,8.40
2018-08-13T22:19:13.331Z,7.80
2018-08-13T22:21:49.978Z,7.53
2018-08-13T22:24:36.718Z,6.93
2018-08-13T22:27:13.078Z,8.97
2018-08-13T22:29:49.491Z,7.63
2018-08-13T22:32:25.915Z,8.17
2018-08-13T22:35:01.334Z,7.47
2018-08-13T22:37:39.199Z,8.77
2018-08-13T22:40:18.219Z,8.43
2018-08-13T22:42:54.191Z,9.97
2018-08-13T22:45:29.053Z,7.20
2018-08-13T22:48:03.649Z,7.97
2018-08-13T22:50:39.194Z,8.40
2018-08-13T22:53:15.127Z,9.83
2018-08-13T22:55:51.211Z,7.80
2018-08-13T22:58:27.243Z,8.80
2018-08-13T23:01:02.689Z,11.17
2018-08-13T23:03:38.108Z,7.50
2018-08-13T23:06:13.575Z,8.10
2018-08-13T23:08:49.475Z,9.83
2018-08-13T23:11:24.846Z,7.00
2018-08-13T23:14:00.254Z,8.67
2018-08-13T23:16:36.674Z,9.13
2018-08-13T23:19:11.800Z,7.43
2018-08-13T23:21:47.017Z,10.07
2018-08-13T23:24:23.489Z,8.73
2018-08-13T23:26:59.379Z,8.57
2018-08-13T23:29:36.062Z,13.43
2018-08-13T23:32:12.611Z,13.33
2018-08-13T23:34:49.407Z,14.30
2018-08-13T23:37:25.418Z,12.27
2018-08-13T23:40:00.593Z,14.17
2018-08-13T23:42:36.854Z,13.17
2018-08-13T23:45:14.337Z,15.20
2018-08-13T23:47:49.327Z,13.50
2018-08-13T23:50:26.882Z,14.17
2018-08-13T23:53:03.705Z,14.97
2018-08-13T23:55:40.522Z,14.37
2018-08-13T23:58:15.538Z,16.97
